createdAt,value
2017-09-12T00:00:23.432Z,19.44
2017-09-12T00:01:32.080Z,19.48
2017-09-12T00:02:41.360Z,19.54
2017-09-12T00:03:50.640Z,19.43
2017-09-12T00:04:59.609Z,19.56
2017-09-12T00:06:08.876Z,19.46
2017-09-12T00:07:18.471Z,19.59
2017-09-12T00:08:27.110Z,19.56
2017-09-12T00:09:36.411Z,19.58
2017-09-12T00:10:45.740Z,19.56
2017-09-12T00:11:55.019Z,19.62
2017-09-12T00:13:03.986Z,19.68
2017-09-12T00:14:13.274Z,19.74
2017-09-12T00:15:21.913Z,19.69
2017-09-12T00:16:31.501Z,19.78
2017-09-12T00:17:40.797Z,19.8
2017-09-12T00:18:49.761Z,19.84
2017-09-12T00:19:58.461Z,19.91
2017-09-12T00:21:07.730Z,19.91
2017-09-12T00:22:16.697Z,19.96
2017-09-12T00:23:26.013Z,19.98
2017-09-12T00:24:35.600Z,19.95
2017-09-12T00:25:44.252Z,20.1
2017-09-12T00:26:53.207Z,20.16
2017-09-12T00:28:02.160Z,20.18
2017-09-12T00:29:10.813Z,20.08
2017-09-12T00:30:20.102Z,20.2
2017-09-12T00:31:29.065Z,20.17
2017-09-12T00:32:38.031Z,20.39
2017-09-12T00:33:46.682Z,20.38
2017-09-12T00:35:28.058Z,20.42
2017-09-12T00:36:37.012Z,20.38
2017-09-12T00:37:46.608Z,20.42
2017-09-12T00:38:55.576Z,20.42
2017-09-12T00:40:04.855Z,20.39
2017-09-12T00:41:14.131Z,20.41
2017-09-12T00:42:22.776Z,20.43
2017-09-12T00:43:31.812Z,20.39
2017-09-12T00:44:41.417Z,20.41
2017-09-12T00:45:50.708Z,20.42
2017-09-12T00:46:59.686Z,20.47
2017-09-12T00:48:08.336Z,20.48
2017-09-12T00:49:17.936Z,20.5
2017-09-12T00:50:27.225Z,20.59
2017-09-12T00:51:36.183Z,20.62
2017-09-12T00:52:45.787Z,20.67
2017-09-12T00:53:54.750Z,20.73
2017-09-12T00:55:03.717Z,20.69
2017-09-12T00:56:12.676Z,20.67
2017-09-12T00:57:21.631Z,20.84
2017-09-12T00:58:30.284Z,20.67
2017-09-12T00:59:39.575Z,20.76
2017-09-12T01:00:48.858Z,20.66
2017-09-12T01:01:57.827Z,20.76
2017-09-12T01:03:06.490Z,20.82
2017-09-12T01:04:15.764Z,20.77
2017-09-12T01:05:25.355Z,20.79
2017-09-12T01:06:34.310Z,20.84
2017-09-12T01:07:42.958Z,20.84
2017-09-12T01:08:52.236Z,20.76
2017-09-12T01:10:00.887Z,20.82
2017-09-12T01:11:09.846Z,20.84
2017-09-12T01:12:18.809Z,20.82
2017-09-12T01:13:27.771Z,20.84
2017-09-12T01:14:36.742Z,20.77
2017-09-12T01:15:45.702Z,20.8
2017-09-12T01:16:54.677Z,20.87
2017-09-12T01:18:03.654Z,20.8
2017-09-12T01:19:12.301Z,20.88
2017-09-12T01:20:21.274Z,20.92
2017-09-12T01:21:30.880Z,20.92
2017-09-12T01:22:40.464Z,20.99
2017-09-12T01:23:49.754Z,20.99
2017-09-12T01:24:58.422Z,20.97
2017-09-12T01:26:07.385Z,20.91
2017-09-12T01:27:16.992Z,20.82
2017-09-12T01:28:26.029Z,20.74
2017-09-12T01:29:34.674Z,20.8
2017-09-12T01:30:43.652Z,20.79
2017-09-12T01:31:52.607Z,20.77
2017-09-12T01:33:01.587Z,20.72
2017-09-12T01:34:10.553Z,20.67
2017-09-12T01:35:19.510Z,20.73
2017-09-12T01:36:28.165Z,20.73
2017-09-12T01:37:37.442Z,20.66
2017-09-12T01:38:46.758Z,20.54
2017-09-12T01:39:55.398Z,20.52
2017-09-12T01:41:04.675Z,20.57
2017-09-12T01:42:13.662Z,20.52
2017-09-12T01:43:22.333Z,20.5
2017-09-12T01:44:30.985Z,20.54
2017-09-12T01:45:39.946Z,20.41
2017-09-12T01:46:48.922Z,20.48
2017-09-12T01:47:57.884Z,20.52
2017-09-12T01:49:06.849Z,20.67
2017-09-12T01:50:15.841Z,20.64
2017-09-12T01:51:25.441Z,20.69
2017-09-12T01:52:34.720Z,20.67
2017-09-12T01:53:44.023Z,20.66
2017-09-12T01:54:53.609Z,20.76
2017-09-12T01:56:02.904Z,20.79
2017-09-12T01:57:11.560Z,20.73
2017-09-12T01:58:20.534Z,20.76
2017-09-12T01:59:30.139Z,20.69
2017-09-12T02:00:38.789Z,20.66
2017-09-12T02:01:48.072Z,20.64
2017-09-12T02:02:57.491Z,20.5
2017-09-12T02:04:06.765Z,20.42
2017-09-12T02:05:15.433Z,20.39
2017-09-12T02:06:24.405Z,20.43
2017-09-12T02:07:33.378Z,20.38
2017-09-12T02:08:42.021Z,20.38
2017-09-12T02:09:51.613Z,20.29
2017-09-12T02:11:00.576Z,20.18
2017-09-12T02:12:09.864Z,20.2
2017-09-12T02:13:18.825Z,20.16
2017-09-12T02:14:28.096Z,20.28
2017-09-12T02:15:36.743Z,20.32
2017-09-12T02:16:45.729Z,20.35
2017-09-12T02:17:54.396Z,20.38
2017-09-12T02:19:03.051Z,20.42
2017-09-12T02:20:12.659Z,20.26
2017-09-12T02:21:21.955Z,20.31
2017-09-12T02:22:30.911Z,20.42
2017-09-12T02:23:39.621Z,20.38
2017-09-12T02:24:48.281Z,20.39
2017-09-12T02:25:56.939Z,20.32
2017-09-12T02:27:05.895Z,20.33
2017-09-12T02:28:15.492Z,20.33
2017-09-12T02:29:24.464Z,20.32
2017-09-12T02:30:33.114Z,20.24
2017-09-12T02:31:42.073Z,20.26
2017-09-12T02:32:51.683Z,20.29
2017-09-12T02:34:01.017Z,20.29
2017-09-12T02:35:10.609Z,20.31
2017-09-12T02:36:20.224Z,20.32
2017-09-12T02:37:29.514Z,20.32
2017-09-12T02:38:38.802Z,20.33
2017-09-12T02:39:48.087Z,20.39
2017-09-12T02:40:58.003Z,20.29
2017-09-12T02:42:07.609Z,20.39
2017-09-12T02:43:16.259Z,20.26
2017-09-12T02:44:25.549Z,20.31
2017-09-12T02:45:34.528Z,20.39
2017-09-12T02:46:43.815Z,20.35
2017-09-12T02:47:52.460Z,20.38
2017-09-12T02:49:01.723Z,20.36
2017-09-12T02:50:10.384Z,20.47
2017-09-12T02:51:19.679Z,20.35
2017-09-12T02:52:28.331Z,20.43
2017-09-12T02:53:36.997Z,20.38
2017-09-12T02:54:45.957Z,20.43
2017-09-12T02:55:55.561Z,20.41
2017-09-12T02:57:04.541Z,20.41
2017-09-12T02:58:13.190Z,20.42
2017-09-12T02:59:22.164Z,20.5
2017-09-12T03:00:31.136Z,20.43
2017-09-12T03:01:40.101Z,20.36
2017-09-12T03:02:48.750Z,20.42
2017-09-12T03:03:58.332Z,20.42
2017-09-12T03:05:07.293Z,20.42
2017-09-12T03:06:16.571Z,20.38
2017-09-12T03:07:25.530Z,20.24
2017-09-12T03:08:34.501Z,20.18
2017-09-12T03:09:43.490Z,20.14
2017-09-12T03:10:52.131Z,20.11
2017-09-12T03:12:01.097Z,20.08
2017-09-12T03:13:10.405Z,20.1
2017-09-12T03:14:19.712Z,20.06
2017-09-12T03:15:28.706Z,20.14
2017-09-12T03:16:37.667Z,20.1
2017-09-12T03:17:47.268Z,19.96
2017-09-12T03:18:56.225Z,19.98
2017-09-12T03:20:05.830Z,20.01
2017-09-12T03:21:14.484Z,20.01
2017-09-12T03:22:23.765Z,19.99
2017-09-12T03:23:32.751Z,19.92
2017-09-12T03:24:42.036Z,19.92
2017-09-12T03:25:50.992Z,19.84
2017-09-12T03:27:00.269Z,19.8
2017-09-12T03:28:08.923Z,19.86
2017-09-12T03:29:18.208Z,19.86
2017-09-12T03:30:27.492Z,19.74
2017-09-12T03:31:36.789Z,19.76
2017-09-12T03:32:45.821Z,19.77
2017-09-12T03:33:54.481Z,19.81
2017-09-12T03:35:03.757Z,19.74
2017-09-12T03:36:13.062Z,19.74
2017-09-12T03:37:21.718Z,19.78
2017-09-12T03:38:30.990Z,19.76
2017-09-12T03:39:40.266Z,19.76
2017-09-12T03:40:49.227Z,19.74
2017-09-12T03:41:58.507Z,19.69
2017-09-12T03:43:07.467Z,19.69
2017-09-12T03:44:16.749Z,19.68
2017-09-12T03:45:25.402Z,19.77
2017-09-12T03:46:34.684Z,19.78
2017-09-12T03:47:43.652Z,19.83
2017-09-12T03:48:52.629Z,19.8
2017-09-12T03:50:01.287Z,19.95
2017-09-12T03:51:10.246Z,19.86
2017-09-12T03:52:19.840Z,19.94
2017-09-12T03:53:28.481Z,19.99
2017-09-12T03:54:38.073Z,20.05
2017-09-12T03:55:47.369Z,19.98
2017-09-12T03:56:56.326Z,20.01
2017-09-12T03:58:05.306Z,20.05
2017-09-12T03:59:13.949Z,19.99
2017-09-12T04:00:23.227Z,20.03
2017-09-12T04:01:31.885Z,20.01
2017-09-12T04:02:41.162Z,20.02
2017-09-12T04:03:50.432Z,19.98
2017-09-12T04:04:59.087Z,19.95
2017-09-12T04:06:07.747Z,20.06
2017-09-12T04:07:16.710Z,19.96
2017-09-12T04:08:25.661Z,19.92
2017-09-12T04:09:35.579Z,19.95
2017-09-12T04:10:44.271Z,19.87
2017-09-12T04:11:53.226Z,19.86
2017-09-12T04:13:02.522Z,19.74
2017-09-12T04:14:11.512Z,19.8
2017-09-12T04:15:20.791Z,19.86
2017-09-12T04:16:30.061Z,19.73
2017-09-12T04:17:39.033Z,19.74
2017-09-12T04:18:48.024Z,19.68
2017-09-12T04:19:57.020Z,19.77
2017-09-12T04:21:06.639Z,19.73
2017-09-12T04:22:15.630Z,19.77
2017-09-12T04:23:24.598Z,19.84
2017-09-12T04:24:33.597Z,19.83
2017-09-12T04:25:42.929Z,19.83
2017-09-12T04:26:51.930Z,19.83
2017-09-12T04:28:01.219Z,19.86
2017-09-12T04:29:10.180Z,19.83
2017-09-12T04:30:19.774Z,19.84
2017-09-12T04:31:28.763Z,19.86
2017-09-12T04:32:38.041Z,19.94
2017-09-12T04:33:47.338Z,19.99
2017-09-12T04:34:56.298Z,20.02
2017-09-12T04:36:05.274Z,19.94
2017-09-12T04:37:14.568Z,20.03
2017-09-12T04:38:23.524Z,19.94
2017-09-12T04:39:32.825Z,19.98
2017-09-12T04:40:41.793Z,20.05
2017-09-12T04:41:50.450Z,20.1
2017-09-12T04:42:59.470Z,20.11
2017-09-12T04:44:08.197Z,20.06
2017-09-12T04:45:17.471Z,19.99
2017-09-12T04:46:26.442Z,19.99
2017-09-12T04:47:36.050Z,19.94
2017-09-12T04:48:44.757Z,19.84
2017-09-12T04:49:54.031Z,19.92
2017-09-12T04:51:02.703Z,19.91
2017-09-12T04:52:11.361Z,19.83
2017-09-12T04:53:20.962Z,19.87
2017-09-12T04:54:29.934Z,19.8
2017-09-12T04:55:38.926Z,19.71
2017-09-12T04:56:48.233Z,19.73
2017-09-12T04:57:57.529Z,19.73
2017-09-12T04:59:06.193Z,19.78
2017-09-12T05:00:14.851Z,19.86
2017-09-12T05:01:23.836Z,19.99
2017-09-12T05:02:32.575Z,20.05
2017-09-12T05:03:41.853Z,20.17
2017-09-12T05:04:51.139Z,20.21
2017-09-12T05:05:59.794Z,20.39
2017-09-12T05:07:08.768Z,20.35
2017-09-12T05:08:17.800Z,20.5
2017-09-12T05:09:26.477Z,20.48
2017-09-12T05:10:35.757Z,20.61
2017-09-12T05:11:44.789Z,20.7
2017-09-12T05:12:53.786Z,20.69
2017-09-12T05:14:02.795Z,20.77
2017-09-12T05:15:12.095Z,20.76
2017-09-12T05:16:21.080Z,20.85
2017-09-12T05:17:30.075Z,20.95
2017-09-12T05:18:39.396Z,20.95
2017-09-12T05:19:48.680Z,21.07
2017-09-12T05:20:58.305Z,21.06
2017-09-12T05:22:06.995Z,21.14
2017-09-12T05:23:16.598Z,21.24
2017-09-12T05:24:25.246Z,21.22
2017-09-12T05:25:34.856Z,21.27
2017-09-12T05:26:44.150Z,21.43
2017-09-12T05:27:53.453Z,21.42
2017-09-12T05:29:02.762Z,21.4
2017-09-12T05:30:12.357Z,21.52
2017-09-12T05:31:21.002Z,21.5
2017-09-12T05:32:29.685Z,21.59
2017-09-12T05:33:38.650Z,21.62
2017-09-12T05:34:47.937Z,21.69
2017-09-12T05:35:57.233Z,21.77
2017-09-12T05:37:06.517Z,21.79
2017-09-12T05:38:15.471Z,21.8
2017-09-12T05:39:24.437Z,21.79
2017-09-12T05:40:34.032Z,21.88
2017-09-12T05:41:42.672Z,21.88
2017-09-12T05:42:51.968Z,21.86
2017-09-12T05:44:00.940Z,21.96
2017-09-12T05:45:09.593Z,21.96
2017-09-12T05:46:18.559Z,22
2017-09-12T05:47:27.844Z,22.05
2017-09-12T05:48:37.464Z,21.88
2017-09-12T05:49:46.439Z,21.98
2017-09-12T05:50:55.101Z,22.06
2017-09-12T05:52:04.066Z,22.05
2017-09-12T05:53:13.034Z,22.07
2017-09-12T05:54:21.734Z,22.05
2017-09-12T05:55:30.708Z,22.12
2017-09-12T05:56:39.673Z,22.07
2017-09-12T05:57:48.970Z,22.07
2017-09-12T05:58:58.296Z,22.07
2017-09-12T06:00:07.890Z,22.18
2017-09-12T06:01:16.536Z,22
2017-09-12T06:02:25.816Z,22.14
2017-09-12T06:03:35.434Z,22.2
2017-09-12T06:04:45.088Z,22.14
2017-09-12T06:05:54.066Z,22.14
2017-09-12T06:07:03.294Z,22.24
2017-09-12T06:08:12.267Z,22.18
2017-09-12T06:09:21.533Z,22.21
2017-09-12T06:10:30.575Z,22.22
2017-09-12T06:11:40.165Z,22.18
2017-09-12T06:12:49.141Z,22.18
2017-09-12T06:13:58.438Z,22.15
2017-09-12T06:15:07.436Z,22.21
2017-09-12T06:16:16.400Z,22.2
2017-09-12T06:17:25.384Z,22.22
2017-09-12T06:18:34.348Z,22.22
2017-09-12T06:19:43.627Z,22.25
2017-09-12T06:20:52.298Z,22.24
2017-09-12T06:22:01.599Z,22.31
2017-09-12T06:23:10.266Z,22.3
2017-09-12T06:24:19.539Z,22.35
2017-09-12T06:25:28.202Z,22.36
2017-09-12T06:26:37.497Z,22.36
2017-09-12T06:27:46.471Z,22.43
2017-09-12T06:28:55.435Z,22.39
2017-09-12T06:30:04.405Z,22.36
2017-09-12T06:31:13.082Z,22.37
2017-09-12T06:32:21.793Z,22.36
2017-09-12T06:33:30.468Z,22.46
2017-09-12T06:34:39.451Z,22.45
2017-09-12T06:35:48.150Z,22.45
2017-09-12T06:36:57.453Z,22.37
2017-09-12T06:38:06.754Z,22.43
2017-09-12T06:39:15.408Z,22.46
2017-09-12T06:40:24.378Z,22.51
2017-09-12T06:41:33.664Z,22.55
2017-09-12T06:42:42.629Z,22.61
2017-09-12T06:43:51.612Z,22.52
2017-09-12T06:45:00.588Z,22.57
2017-09-12T06:46:09.269Z,22.58
2017-09-12T06:47:19.232Z,22.54
2017-09-12T06:48:28.901Z,22.52
2017-09-12T06:49:38.190Z,22.57
2017-09-12T06:50:46.845Z,22.58
2017-09-12T06:51:56.131Z,22.6
2017-09-12T06:53:05.108Z,22.62
2017-09-12T06:54:14.399Z,22.67
2017-09-12T06:55:23.371Z,22.75
2017-09-12T06:56:32.039Z,22.7
2017-09-12T06:57:41.056Z,22.68
2017-09-12T06:58:49.725Z,22.79
2017-09-12T06:59:58.397Z,22.86
2017-09-12T07:01:07.699Z,22.82
2017-09-12T07:02:16.983Z,22.82
2017-09-12T07:03:25.638Z,22.9
2017-09-12T07:04:34.924Z,22.9
2017-09-12T07:05:43.899Z,22.9
2017-09-12T07:06:53.194Z,22.86
2017-09-12T07:08:02.174Z,22.82
2017-09-12T07:09:12.100Z,22.82
2017-09-12T07:10:21.395Z,22.83
2017-09-12T07:11:30.363Z,22.79
2017-09-12T07:12:39.646Z,22.73
2017-09-12T07:13:48.618Z,22.72
2017-09-12T07:14:57.912Z,22.79
2017-09-12T07:16:06.574Z,22.73
2017-09-12T07:17:15.875Z,22.75
2017-09-12T07:18:24.852Z,22.7
2017-09-12T07:19:33.507Z,22.79
2017-09-12T07:20:42.796Z,22.77
2017-09-12T07:21:52.079Z,22.76
2017-09-12T07:23:01.133Z,22.72
2017-09-12T07:24:09.885Z,22.75
2017-09-12T07:25:19.883Z,22.77
2017-09-12T07:26:29.508Z,22.75
2017-09-12T07:27:38.811Z,22.72
2017-09-12T07:28:48.115Z,22.77
2017-09-12T07:29:57.417Z,22.76
2017-09-12T07:31:06.070Z,22.75
2017-09-12T07:32:15.066Z,22.65
2017-09-12T07:33:24.367Z,22.72
2017-09-12T07:34:33.647Z,22.61
2017-09-12T07:35:42.671Z,22.72
2017-09-12T07:36:51.323Z,22.73
2017-09-12T07:38:00.335Z,22.75
2017-09-12T07:39:08.966Z,22.75
2017-09-12T07:40:19.197Z,22.73
2017-09-12T07:41:27.840Z,22.77
2017-09-12T07:42:37.140Z,22.8
2017-09-12T07:43:45.800Z,22.82
2017-09-12T07:44:54.792Z,22.8
2017-09-12T07:46:03.457Z,22.86
2017-09-12T07:47:12.111Z,22.9
2017-09-12T07:48:22.041Z,22.85
2017-09-12T07:49:30.692Z,22.86
2017-09-12T07:50:39.343Z,22.94
2017-09-12T07:51:48.306Z,22.92
2017-09-12T07:52:57.609Z,22.95
2017-09-12T07:54:06.260Z,23
2017-09-12T07:55:15.232Z,23.07
2017-09-12T07:56:23.900Z,23.13
2017-09-12T07:57:33.187Z,23.07
2017-09-12T07:58:42.153Z,23.07
2017-09-12T07:59:51.125Z,23.15
2017-09-12T08:01:00.424Z,23.19
2017-09-12T08:02:09.082Z,23.2
2017-09-12T08:03:18.052Z,23.15
2017-09-12T08:04:27.023Z,23.17
2017-09-12T08:05:35.676Z,23.28
2017-09-12T08:06:44.973Z,23.31
2017-09-12T08:07:53.639Z,23.22
2017-09-12T08:09:02.942Z,23.27
2017-09-12T08:10:11.596Z,23.16
2017-09-12T08:11:20.925Z,23.19
2017-09-12T08:12:29.877Z,23.23
2017-09-12T08:13:38.539Z,23.2
2017-09-12T08:14:47.231Z,23.19
2017-09-12T08:15:56.798Z,23.13
2017-09-12T08:17:05.452Z,23.15
2017-09-12T08:18:14.113Z,23.16
2017-09-12T08:19:23.719Z,23.17
2017-09-12T08:20:33.021Z,23.13
2017-09-12T08:21:42.926Z,23.17
2017-09-12T08:22:51.607Z,23.19
2017-09-12T08:24:00.889Z,23.17
2017-09-12T08:25:10.170Z,23.17
2017-09-12T08:26:19.151Z,23.1
2017-09-12T08:27:28.132Z,23.2
2017-09-12T08:28:37.116Z,23.17
2017-09-12T08:29:45.782Z,23.15
2017-09-12T08:30:54.441Z,23.17
2017-09-12T08:32:04.048Z,23.12
2017-09-12T08:33:13.032Z,23.09
2017-09-12T08:34:22.001Z,23.13
2017-09-12T08:35:31.602Z,23.15
2017-09-12T08:36:40.885Z,23.15
2017-09-12T08:37:50.181Z,23.07
2017-09-12T08:38:59.477Z,23.17
2017-09-12T08:40:08.792Z,23.16
2017-09-12T08:41:18.078Z,23.13
2017-09-12T08:42:27.367Z,23.04
2017-09-12T08:43:36.338Z,23.16
2017-09-12T08:44:45.640Z,23.02
2017-09-12T08:45:55.562Z,23.07
2017-09-12T08:47:04.531Z,23.04
2017-09-12T08:48:13.183Z,23.02
2017-09-12T08:49:21.826Z,23.09
2017-09-12T08:50:30.501Z,23.01
2017-09-12T08:51:40.108Z,23.1
2017-09-12T08:52:49.391Z,22.98
2017-09-12T08:53:58.059Z,23.02
2017-09-12T08:55:07.354Z,22.9
2017-09-12T08:56:16.649Z,22.95
2017-09-12T08:57:26.279Z,22.97
2017-09-12T08:58:35.892Z,22.95
2017-09-12T08:59:44.870Z,22.88
2017-09-12T09:00:54.159Z,22.92
2017-09-12T09:02:03.137Z,22.85
2017-09-12T09:03:12.107Z,22.85
2017-09-12T09:04:20.767Z,22.9
2017-09-12T09:05:29.743Z,22.86
2017-09-12T09:06:38.712Z,22.8
2017-09-12T09:07:47.381Z,22.83
2017-09-12T09:08:56.427Z,22.82
2017-09-12T09:10:05.090Z,22.82
2017-09-12T09:11:14.374Z,22.77
2017-09-12T09:12:23.049Z,22.85
2017-09-12T09:13:31.701Z,22.92
2017-09-12T09:14:40.998Z,22.94
2017-09-12T09:15:49.686Z,22.91
2017-09-12T09:16:58.973Z,22.92
2017-09-12T09:18:07.972Z,23
2017-09-12T09:19:16.645Z,22.98
2017-09-12T09:20:25.312Z,23.05
2017-09-12T09:21:33.966Z,23.04
2017-09-12T09:22:43.255Z,22.98
2017-09-12T09:23:52.634Z,23.09
2017-09-12T09:25:01.300Z,23.04
2017-09-12T09:26:10.289Z,23.17
2017-09-12T09:27:20.277Z,23.19
2017-09-12T09:28:29.909Z,23.22
2017-09-12T09:29:38.562Z,23.19
2017-09-12T09:30:47.540Z,23.31
2017-09-12T09:31:56.521Z,23.27
2017-09-12T09:33:05.204Z,23.38
2017-09-12T09:34:14.185Z,23.39
2017-09-12T09:35:23.472Z,23.43
2017-09-12T09:36:32.453Z,23.39
2017-09-12T09:37:41.761Z,23.28
2017-09-12T09:38:51.091Z,23.4
2017-09-12T09:40:00.055Z,23.33
2017-09-12T09:41:09.363Z,23.27
2017-09-12T09:42:18.658Z,23.27
2017-09-12T09:43:27.947Z,23.23
2017-09-12T09:44:36.623Z,23.16
2017-09-12T09:45:45.907Z,23.22
2017-09-12T09:46:54.896Z,23.13
2017-09-12T09:48:03.906Z,23.22
2017-09-12T09:49:12.884Z,23.16
2017-09-12T09:50:22.160Z,23.15
2017-09-12T09:51:31.131Z,23.17
2017-09-12T09:52:40.110Z,23.12
2017-09-12T09:53:49.398Z,23.15
2017-09-12T09:54:58.360Z,23.04
2017-09-12T09:56:08.289Z,23.1
2017-09-12T09:57:17.894Z,23.15
2017-09-12T09:58:26.556Z,23.15
2017-09-12T09:59:36.168Z,23.13
2017-09-12T10:00:45.470Z,23.17
2017-09-12T10:01:54.768Z,23.09
2017-09-12T10:03:03.426Z,23.17
2017-09-12T10:04:12.399Z,23.19
2017-09-12T10:05:21.385Z,23.22
2017-09-12T10:06:30.361Z,23.16
2017-09-12T10:07:39.346Z,23.23
2017-09-12T10:08:48.316Z,23.2
2017-09-12T10:09:57.607Z,23.2
2017-09-12T10:11:06.908Z,23.2
2017-09-12T10:12:15.903Z,23.19
2017-09-12T10:13:24.883Z,23.13
2017-09-12T10:14:34.173Z,23.2
2017-09-12T10:15:43.449Z,23.16
2017-09-12T10:16:52.110Z,23.15
2017-09-12T10:18:00.776Z,23.2
2017-09-12T10:19:09.429Z,23.17
2017-09-12T10:20:19.024Z,23.15
2017-09-12T10:21:28.325Z,23.15
2017-09-12T10:22:36.975Z,23.15
2017-09-12T10:23:45.935Z,23.19
2017-09-12T10:24:54.596Z,23.2
2017-09-12T10:26:03.574Z,23.2
2017-09-12T10:27:13.194Z,23.22
2017-09-12T10:28:22.467Z,23.22
2017-09-12T10:29:31.754Z,23.25
2017-09-12T10:30:40.730Z,23.16
2017-09-12T10:31:49.697Z,23.15
2017-09-12T10:32:58.676Z,23.19
2017-09-12T10:34:07.660Z,23.16
2017-09-12T10:35:16.626Z,23.16
2017-09-12T10:36:25.925Z,23.12
2017-09-12T10:37:35.242Z,23.15
2017-09-12T10:38:44.227Z,23.13
2017-09-12T10:39:53.207Z,23.16
2017-09-12T10:41:01.878Z,23.07
2017-09-12T10:42:10.849Z,23.05
2017-09-12T10:43:20.160Z,23.17
2017-09-12T10:44:29.144Z,23.16
2017-09-12T10:45:38.130Z,23.12
2017-09-12T10:46:47.108Z,23.1
2017-09-12T10:47:56.077Z,23.07
2017-09-12T10:49:04.737Z,23.05
2017-09-12T10:50:13.724Z,23.01
2017-09-12T10:51:23.005Z,23.02
2017-09-12T10:52:32.289Z,23.05
2017-09-12T10:53:41.579Z,23.05
2017-09-12T10:54:50.561Z,23.01
2017-09-12T10:55:59.546Z,23.07
2017-09-12T10:57:08.524Z,23
2017-09-12T10:58:17.517Z,23.05
2017-09-12T10:59:26.535Z,23.05
2017-09-12T11:00:35.841Z,23.05
2017-09-12T11:01:45.441Z,23.04
2017-09-12T11:02:54.423Z,23.09
2017-09-12T11:04:03.409Z,23.1
2017-09-12T11:05:12.392Z,23.05
2017-09-12T11:06:21.709Z,23.04
2017-09-12T11:07:30.991Z,23.05
2017-09-12T11:08:40.283Z,23.01
2017-09-12T11:09:49.606Z,23.01
2017-09-12T11:10:58.927Z,23.05
2017-09-12T11:12:08.209Z,23.09
2017-09-12T11:13:17.816Z,23.01
2017-09-12T11:14:26.500Z,23.02
2017-09-12T11:15:35.488Z,23.02
2017-09-12T11:16:44.768Z,23.07
2017-09-12T11:17:53.426Z,23.05
2017-09-12T11:19:02.395Z,23.05
2017-09-12T11:20:11.698Z,23.05
2017-09-12T11:21:20.684Z,23.02
2017-09-12T11:22:29.983Z,22.98
2017-09-12T11:23:39.276Z,23.1
2017-09-12T11:24:48.252Z,23.02
2017-09-12T11:25:57.219Z,23.04
2017-09-12T11:27:07.130Z,23.09
2017-09-12T11:28:16.098Z,23.07
2017-09-12T11:29:24.771Z,23.04
2017-09-12T11:30:33.767Z,23.04
2017-09-12T11:31:42.753Z,22.98
2017-09-12T11:32:52.367Z,23.04
2017-09-12T11:34:01.342Z,23
2017-09-12T11:35:10.011Z,23.01
2017-09-12T11:36:18.992Z,23.04
2017-09-12T11:37:27.954Z,22.97
2017-09-12T11:38:37.241Z,23.01
2017-09-12T11:39:46.845Z,23.02
2017-09-12T11:40:56.134Z,23
2017-09-12T11:42:05.102Z,22.97
2017-09-12T11:43:14.388Z,22.97
2017-09-12T11:44:23.987Z,23.02
2017-09-12T11:45:33.306Z,22.95
2017-09-12T11:46:42.250Z,23
2017-09-12T11:47:51.222Z,23.04
2017-09-12T11:49:00.195Z,23.02
2017-09-12T11:50:09.487Z,23.02
2017-09-12T11:51:18.472Z,23.07
2017-09-12T11:52:28.071Z,23.05
2017-09-12T11:53:37.064Z,23.04
2017-09-12T11:54:46.064Z,23.05
2017-09-12T11:55:54.738Z,23.13
2017-09-12T11:57:03.427Z,23.1
2017-09-12T11:58:12.110Z,23.07
2017-09-12T11:59:21.097Z,23.05
2017-09-12T12:00:30.408Z,23.02
2017-09-12T12:01:39.696Z,23.05
2017-09-12T12:02:48.694Z,23
2017-09-12T12:03:58.296Z,23.07
2017-09-12T12:05:07.280Z,23.07
2017-09-12T12:06:16.243Z,23.12
2017-09-12T12:07:25.538Z,23.1
2017-09-12T12:08:35.144Z,23
2017-09-12T12:09:44.438Z,22.98
2017-09-12T12:10:53.736Z,23.07
2017-09-12T12:12:02.715Z,23.01
2017-09-12T12:13:12.314Z,23.04
2017-09-12T12:14:21.977Z,23.04
2017-09-12T12:15:31.268Z,23.09
2017-09-12T12:16:40.238Z,23.12
2017-09-12T12:17:49.538Z,23.1
2017-09-12T12:18:58.511Z,23.05
2017-09-12T12:20:07.826Z,23.05
2017-09-12T12:21:16.498Z,23.13
2017-09-12T12:22:25.478Z,23.07
2017-09-12T12:23:34.453Z,23.07
2017-09-12T12:24:43.497Z,23.17
2017-09-12T12:25:52.489Z,23.16
2017-09-12T12:27:01.516Z,23.09
2017-09-12T12:28:10.493Z,23.15
2017-09-12T12:29:19.478Z,23.16
2017-09-12T12:30:28.462Z,23.16
2017-09-12T12:31:37.747Z,23.1
2017-09-12T12:32:46.723Z,23.16
2017-09-12T12:33:55.383Z,23.16
2017-09-12T12:35:04.393Z,23.19
2017-09-12T12:36:13.045Z,23.15
2017-09-12T12:37:22.322Z,23.17
2017-09-12T12:38:30.972Z,23.12
2017-09-12T12:39:40.892Z,23.12
2017-09-12T12:40:49.542Z,23.15
2017-09-12T12:41:58.843Z,23.19
2017-09-12T12:43:08.149Z,23.16
2017-09-12T12:44:17.444Z,23.23
2017-09-12T12:45:26.411Z,23.25
2017-09-12T12:46:35.066Z,23.28
2017-09-12T12:47:44.038Z,23.25
2017-09-12T12:48:52.687Z,23.31
2017-09-12T12:50:02.626Z,23.2
2017-09-12T12:51:11.604Z,23.25
2017-09-12T12:52:20.265Z,23.13
2017-09-12T12:53:29.231Z,23.23
2017-09-12T12:54:38.836Z,23.15
2017-09-12T12:55:48.756Z,23.23
2017-09-12T12:56:57.419Z,23.23
2017-09-12T12:58:06.715Z,23.19
2017-09-12T12:59:15.382Z,23.17
2017-09-12T13:00:24.669Z,23.23
2017-09-12T13:01:33.652Z,23.19
2017-09-12T13:02:42.945Z,23.22
2017-09-12T13:03:52.553Z,23.19
2017-09-12T13:05:01.227Z,23.2
2017-09-12T13:06:10.196Z,23.22
2017-09-12T13:07:19.274Z,23.23
2017-09-12T13:08:27.933Z,23.22
2017-09-12T13:09:37.227Z,23.17
2017-09-12T13:10:46.516Z,23.17
2017-09-12T13:11:56.126Z,23.2
2017-09-12T13:13:05.414Z,23.27
2017-09-12T13:14:14.407Z,23.25
2017-09-12T13:15:23.079Z,23.12
2017-09-12T13:16:32.052Z,23.2
2017-09-12T13:17:41.032Z,23.16
2017-09-12T13:18:51.011Z,23.23
2017-09-12T13:20:00.318Z,23.27
2017-09-12T13:21:08.998Z,23.31
2017-09-12T13:22:17.960Z,23.27
2017-09-12T13:23:27.246Z,23.23
2017-09-12T13:24:36.226Z,23.39
2017-09-12T13:25:45.235Z,23.32
2017-09-12T13:26:53.910Z,23.23
2017-09-12T13:28:02.894Z,23.25
2017-09-12T13:29:12.181Z,23.22
2017-09-12T13:30:21.168Z,23.17
2017-09-12T13:31:30.143Z,23.23
2017-09-12T13:32:39.451Z,23.19
2017-09-12T13:33:49.370Z,23.2
2017-09-12T13:34:58.353Z,23.19
2017-09-12T13:36:07.648Z,23.17
2017-09-12T13:37:17.257Z,23.19
2017-09-12T13:38:26.228Z,23.15
2017-09-12T13:39:35.215Z,23.05
2017-09-12T13:40:44.194Z,23.13
2017-09-12T13:41:53.794Z,23.05
2017-09-12T13:43:03.390Z,23.07
2017-09-12T13:44:12.363Z,23.15
2017-09-12T13:45:21.656Z,23.09
2017-09-12T13:46:30.324Z,23.2
2017-09-12T13:47:38.983Z,23.16
2017-09-12T13:48:47.958Z,23.17
2017-09-12T13:49:57.255Z,23.17
2017-09-12T13:51:05.928Z,23.16
2017-09-12T13:52:15.226Z,23.12
2017-09-12T13:53:23.896Z,23.19
2017-09-12T13:54:33.497Z,23.19
2017-09-12T13:55:42.157Z,23.15
2017-09-12T13:56:50.846Z,23.13
2017-09-12T13:57:59.835Z,23.17
2017-09-12T13:59:08.859Z,23.15
2017-09-12T14:00:18.164Z,23.1
2017-09-12T14:01:27.766Z,23.19
2017-09-12T14:02:36.422Z,23.13
2017-09-12T14:03:45.098Z,23.15
2017-09-12T14:04:53.750Z,23.1
2017-09-12T14:06:02.736Z,23.15
2017-09-12T14:07:12.016Z,23.1
2017-09-12T14:08:20.678Z,23.1
2017-09-12T14:09:29.966Z,23.16
2017-09-12T14:10:39.270Z,23.13
2017-09-12T14:11:48.874Z,23.13
2017-09-12T14:12:57.857Z,23.19
2017-09-12T14:14:06.834Z,23.13
2017-09-12T14:15:16.157Z,23.09
2017-09-12T14:16:24.816Z,23.13
2017-09-12T14:17:33.793Z,23.15
2017-09-12T14:18:42.452Z,23.1
2017-09-12T14:19:51.126Z,23.04
2017-09-12T14:21:00.418Z,23.15
2017-09-12T14:22:09.710Z,23.15
2017-09-12T14:23:19.007Z,23.15
2017-09-12T14:24:28.017Z,23.15
2017-09-12T14:25:36.708Z,23.07
2017-09-12T14:26:46.330Z,23.02
2017-09-12T14:27:55.313Z,23.05
2017-09-12T14:29:03.973Z,23.09
2017-09-12T14:30:13.323Z,23.01
2017-09-12T14:31:22.287Z,23.04
2017-09-12T14:32:30.945Z,23.04
2017-09-12T14:33:39.689Z,23.01
2017-09-12T14:34:49.291Z,23.05
2017-09-12T14:35:58.562Z,23.13
2017-09-12T14:37:07.857Z,23.04
2017-09-12T14:38:16.517Z,23.05
2017-09-12T14:39:25.813Z,23.07
2017-09-12T14:40:35.423Z,23.09
2017-09-12T14:41:44.390Z,23.16
2017-09-12T14:42:54.330Z,23.16
2017-09-12T14:44:03.361Z,23.16
2017-09-12T14:45:12.346Z,23.15
2017-09-12T14:46:21.002Z,23.17
2017-09-12T14:47:29.971Z,23.13
2017-09-12T14:48:39.603Z,23.15
2017-09-12T14:49:49.197Z,23.16
2017-09-12T14:50:57.849Z,23.16
2017-09-12T14:52:07.775Z,23.1
2017-09-12T14:53:16.753Z,23.1